Time;durP1;ratioP1;P1;durP2;ratioP2;P2;SDS_P1;SDS_P2;PMS_P1;PMS_P2;Temp;Humidity;BMP_temperature;BMP_pressure;BME280_temperature;BME280_humidity;BME280_pressure;Samples;Min_cycle;Max_cycle;Signal;HPM_P1;HPM_P2
2022/12/20 00:00:44;;;;;;;8.50;7.60;;;19.50;52.30;;;;;;4992362;28;20266;-68
2022/12/20 00:03:10;;;;;;;8.95;8.05;;;19.50;52.30;;;;;;4992169;28;20191;-68
2022/12/20 00:05:38;;;;;;;8.32;7.40;;;19.50;52.40;;;;;;4992461;28;20192;-68
2022/12/20 00:08:05;;;;;;;8.85;7.60;;;19.50;52.40;;;;;;4992150;28;20259;-68
2022/12/20 00:10:37;;;;;;;8.70;7.80;;;19.50;52.40;;;;;;4993547;28;20647;-68
2022/12/20 00:13:03;;;;;;;8.27;7.47;;;19.50;52.40;;;;;;4992513;28;20253;-68
2022/12/20 00:15:30;;;;;;;7.85;7.05;;;19.50;52.40;;;;;;4976035;28;20235;-68
2022/12/20 00:17:56;;;;;;;8.68;7.05;;;19.50;52.40;;;;;;4975788;28;20188;-68
2022/12/20 00:20:22;;;;;;;8.20;6.90;;;19.50;52.40;;;;;;4992293;28;20220;-68
2022/12/20 00:22:48;;;;;;;7.75;6.90;;;19.50;52.40;;;;;;4991835;28;20184;-69
2022/12/20 00:25:14;;;;;;;8.07;7.28;;;19.50;52.40;;;;;;4992084;28;20185;-67
2022/12/20 00:27:40;;;;;;;7.70;6.90;;;19.50;52.30;;;;;;4975679;28;20255;-68
2022/12/20 00:30:06;;;;;;;7.82;7.00;;;19.50;52.40;;;;;;4992068;28;20676;-68
2022/12/20 00:32:32;;;;;;;8.05;7.25;;;19.50;52.40;;;;;;4991703;28;20188;-68
2022/12/20 00:34:58;;;;;;;8.13;7.30;;;19.50;52.40;;;;;;4975986;28;20193;-68
2022/12/20 00:37:23;;;;;;;7.45;6.65;;;19.50;52.40;;;;;;4991857;28;20216;-68
2022/12/20 00:39:49;;;;;;;7.90;7.10;;;19.50;52.40;;;;;;4992974;28;20255;-68
2022/12/20 00:42:15;;;;;;;7.25;6.55;;;19.50;52.40;;;;;;4991587;28;20184;-68
2022/12/20 00:44:41;;;;;;;8.15;7.35;;;19.50;52.40;;;;;;4974925;28;20235;-68
2022/12/20 00:47:06;;;;;;;7.90;6.90;;;19.50;52.40;;;;;;4991625;28;20267;-68
2022/12/20 00:49:32;;;;;;;7.25;6.55;;;19.50;52.40;;;;;;4975837;28;20208;-68
2022/12/20 00:51:58;;;;;;;7.55;6.85;;;19.50;52.40;;;;;;4975522;28;20243;-67
2022/12/20 00:54:24;;;;;;;7.57;6.60;;;19.50;52.40;;;;;;4992037;28;20189;-69
2022/12/20 00:56:49;;;;;;;7.57;6.63;;;19.50;52.30;;;;;;4975599;28;20179;-69
2022/12/20 00:59:15;;;;;;;8.15;6.65;;;19.50;52.40;;;;;;4975811;28;20213;-69
2022/12/20 01:01:41;;;;;;;7.60;6.88;;;19.50;52.40;;;;;;4991517;28;20204;-68
2022/12/20 01:04:07;;;;;;;7.63;6.88;;;19.50;52.40;;;;;;4991898;28;20180;-69
2022/12/20 01:06:33;;;;;;;8.13;6.63;;;19.50;52.40;;;;;;4991452;28;20216;-68
2022/12/20 01:09:00;;;;;;;6.88;6.18;;;19.50;52.30;;;;;;4975674;28;20224;-69
2022/12/20 01:11:34;;;;;;;7.95;6.95;;;19.50;52.40;;;;;;5007872;28;20184;-68
2022/12/20 01:14:09;;;;;;;7.25;6.55;;;19.50;52.30;;;;;;4992540;28;20169;-68
2022/12/20 01:16:43;;;;;;;7.43;6.22;;;19.50;52.30;;;;;;5007989;28;20175;-68
2022/12/20 01:19:15;;;;;;;7.93;6.85;;;19.50;52.40;;;;;;4991555;28;20208;-68
2022/12/20 01:21:43;;;;;;;8.32;6.75;;;19.50;52.30;;;;;;4991850;28;20181;-67
2022/12/20 01:24:18;;;;;;;7.45;6.75;;;19.50;52.30;;;;;;4991315;28;20285;-68
2022/12/20 01:26:46;;;;;;;7.70;6.90;;;19.50;52.30;;;;;;4991437;28;20188;-68
2022/12/20 01:29:12;;;;;;;8.48;6.88;;;19.50;52.40;;;;;;4991416;28;20574;-68
2022/12/20 01:31:39;;;;;;;7.30;6.60;;;19.50;52.30;;;;;;4975615;28;20185;-68
2022/12/20 01:34:05;;;;;;;7.10;6.40;;;19.50;52.30;;;;;;4991248;28;20205;-68
2022/12/20 01:36:34;;;;;;;7.43;6.63;;;19.50;52.30;;;;;;4975369;28;20192;-68
2022/12/20 01:39:15;;;;;;;7.35;6.65;;;19.50;52.30;;;;;;4991261;28;20217;-68
2022/12/20 01:41:44;;;;;;;7.32;6.57;;;19.50;52.30;;;;;;4991205;28;20192;-67
2022/12/20 01:44:16;;;;;;;6.93;6.20;;;19.50;52.40;;;;;;4974997;28;20613;-68
2022/12/20 01:46:45;;;;;;;7.28;6.10;;;19.50;52.30;;;;;;4991283;28;20243;-68
2022/12/20 01:49:27;;;;;;;7.63;6.82;;;19.50;52.30;;;;;;4974773;28;20209;-67
2022/12/20 01:52:19;;;;;;;8.27;7.03;;;19.50;52.30;;;;;;4991029;28;20188;-67
2022/12/20 01:54:59;;;;;;;7.13;6.22;;;19.50;52.30;;;;;;4991102;28;20540;-67
2022/12/20 01:57:35;;;;;;;7.90;7.10;;;19.50;52.30;;;;;;5010016;28;20219;-68
2022/12/20 02:00:05;;;;;;;7.10;6.40;;;19.50;52.30;;;;;;4994730;28;20204;-68
2022/12/20 02:02:40;;;;;;;7.43;6.72;;;19.50;52.30;;;;;;4994540;28;20200;-67
2022/12/20 02:05:07;;;;;;;7.57;6.78;;;19.50;52.30;;;;;;4978767;28;20179;-68
2022/12/20 02:07:36;;;;;;;7.47;6.68;;;19.50;52.30;;;;;;4994447;28;20235;-68
2022/12/20 02:10:06;;;;;;;7.05;6.30;;;19.50;52.30;;;;;;4978223;28;20707;-68
2022/12/20 02:13:06;;;;;;;7.32;6.57;;;19.50;52.30;;;;;;4994202;28;20632;-67
2022/12/20 02:15:54;;;;;;;7.28;6.07;;;19.50;52.40;;;;;;4994279;28;20235;-69
2022/12/20 02:18:35;;;;;;;8.00;6.78;;;19.50;52.30;;;;;;4994119;28;20299;-68
2022/12/20 02:21:11;;;;;;;7.82;6.63;;;19.50;52.30;;;;;;4994545;28;20320;-68
2022/12/20 02:23:55;;;;;;;7.65;6.63;;;19.50;52.30;;;;;;4993948;28;20243;-68
2022/12/20 02:27:01;;;;;;;7.35;6.60;;;19.50;52.30;;;;;;4994309;28;20176;-68
2022/12/20 02:29:42;;;;;;;6.82;6.10;;;19.50;52.30;;;;;;4993973;28;20254;-68
2022/12/20 02:32:15;;;;;;;7.07;6.35;;;19.50;52.30;;;;;;4978010;28;20180;-68
2022/12/20 02:34:42;;;;;;;7.38;6.47;;;19.50;52.30;;;;;;4994327;28;20275;-68
2022/12/20 02:37:09;;;;;;;7.85;7.05;;;19.50;52.30;;;;;;4977740;28;20184;-68
2022/12/20 02:39:39;;;;;;;6.95;6.28;;;19.50;52.30;;;;;;4993840;28;20212;-68
2022/12/20 02:42:11;;;;;;;6.75;6.03;;;19.50;52.30;;;;;;4993756;28;20189;-67
2022/12/20 02:48:01;;;;;;;6.90;5.95;;;19.50;52.30;;;;;;4993849;28;20220;-68
2022/12/20 02:50:44;;;;;;;6.90;5.65;;;19.50;52.30;;;;;;4994046;28;20189;-68
2022/12/20 02:53:11;;;;;;;6.35;5.75;;;19.50;52.40;;;;;;4977509;28;20208;-68
2022/12/20 02:55:49;;;;;;;6.32;5.60;;;19.50;52.30;;;;;;4993461;28;20184;-68
2022/12/20 02:58:39;;;;;;;6.45;5.70;;;19.50;52.30;;;;;;4977442;28;20200;-68
2022/12/20 03:01:23;;;;;;;6.63;5.70;;;19.50;52.30;;;;;;4993088;28;20715;-68
2022/12/20 03:03:50;;;;;;;6.80;5.63;;;19.50;52.30;;;;;;4991479;28;20196;-68
2022/12/20 03:06:17;;;;;;;6.43;5.80;;;19.50;52.40;;;;;;4999129;28;20191;-67
2022/12/20 03:08:43;;;;;;;5.90;5.20;;;19.50;52.40;;;;;;4976515;28;20216;-69
2022/12/20 03:11:09;;;;;;;5.82;4.85;;;19.50;52.30;;;;;;4993363;28;20256;-68
2022/12/20 03:13:34;;;;;;;5.55;5.05;;;19.50;52.40;;;;;;4993309;28;20177;-69
2022/12/20 03:16:09;;;;;;;5.93;5.32;;;19.50;52.40;;;;;;4993493;28;20185;-68
2022/12/20 03:18:36;;;;;;;6.53;5.75;;;19.50;52.40;;;;;;4993076;28;20207;-67
2022/12/20 03:21:02;;;;;;;6.35;5.75;;;19.50;52.40;;;;;;4992841;28;20189;-68
2022/12/20 03:23:28;;;;;;;5.82;5.30;;;19.50;52.40;;;;;;4993118;28;20308;-68
2022/12/20 03:25:55;;;;;;;5.78;5.18;;;19.50;52.40;;;;;;5009572;28;20276;-68
2022/12/20 03:28:29;;;;;;;5.93;4.97;;;19.50;52.50;;;;;;5009200;28;20224;-68
2022/12/20 03:30:56;;;;;;;5.32;4.68;;;19.50;52.40;;;;;;4993221;28;20273;-68
2022/12/20 03:33:22;;;;;;;5.43;4.72;;;19.50;52.40;;;;;;4992683;28;20172;-68
2022/12/20 03:35:48;;;;;;;5.43;4.57;;;19.50;52.40;;;;;;4991420;28;20235;-68
2022/12/20 03:38:16;;;;;;;4.93;4.45;;;19.50;52.40;;;;;;5009141;28;20204;-68
2022/12/20 03:40:42;;;;;;;4.95;4.45;;;19.50;52.40;;;;;;4992995;28;20185;-68
2022/12/20 03:43:09;;;;;;;6.07;4.65;;;19.50;52.40;;;;;;5008666;28;20673;-69
2022/12/20 03:45:35;;;;;;;4.68;4.28;;;19.50;52.40;;;;;;4976789;28;20184;-69
2022/12/20 03:48:01;;;;;;;4.68;4.28;;;19.50;52.40;;;;;;4992686;28;20205;-68
2022/12/20 03:50:30;;;;;;;6.65;4.63;;;19.50;52.40;;;;;;4992827;28;20205;-68
2022/12/20 03:52:55;;;;;;;5.00;4.53;;;19.50;52.40;;;;;;4992658;28;20173;-68
2022/12/20 03:55:21;;;;;;;4.68;4.15;;;19.50;52.40;;;;;;4992468;28;20187;-68
2022/12/20 03:57:47;;;;;;;4.70;4.25;;;19.50;52.40;;;;;;4992204;28;20196;-69
2022/12/20 04:00:27;;;;;;;4.75;4.22;;;19.50;52.40;;;;;;4992553;28;20206;-68
2022/12/20 04:03:03;;;;;;;4.68;4.28;;;19.50;52.40;;;;;;4977373;28;20220;-68
2022/12/20 04:05:29;;;;;;;4.50;4.10;;;19.50;52.40;;;;;;4992373;28;20284;-69
2022/12/20 04:07:55;;;;;;;4.90;4.30;;;19.50;52.40;;;;;;4992096;28;20213;-69
2022/12/20 04:10:21;;;;;;;4.97;4.47;;;19.50;52.40;;;;;;4992253;28;20184;-68
2022/12/20 04:12:47;;;;;;;4.85;4.20;;;19.50;52.40;;;;;;4991977;28;20176;-68
2022/12/20 04:15:18;;;;;;;4.28;3.88;;;19.50;52.40;;;;;;5008549;28;20199;-68
2022/12/20 04:17:45;;;;;;;3.95;3.58;;;19.50;52.40;;;;;;4992110;28;20220;-68
2022/12/20 04:20:18;;;;;;;4.55;3.92;;;19.50;52.40;;;;;;4975270;28;20680;-68
2022/12/20 04:22:51;;;;;;;4.38;3.97;;;19.50;52.40;;;;;;4991971;28;20169;-68
2022/12/20 04:25:19;;;;;;;4.80;4.30;;;19.50;52.50;;;;;;4975768;28;20184;-68
2022/12/20 04:27:46;;;;;;;4.95;3.75;;;19.50;52.40;;;;;;4991858;28;20251;-68
2022/12/20 04:30:13;;;;;;;3.63;3.33;;;19.50;52.40;;;;;;4991892;28;20189;-68
2022/12/20 04:32:38;;;;;;;3.88;3.55;;;19.50;52.40;;;;;;4991714;28;20233;-68
2022/12/20 04:35:05;;;;;;;4.25;3.50;;;19.50;52.40;;;;;;4991954;28;20584;-68
2022/12/20 04:37:36;;;;;;;4.32;3.70;;;19.50;52.50;;;;;;4992066;28;20188;-68
2022/12/20 04:40:03;;;;;;;3.67;3.38;;;19.50;52.40;;;;;;4977118;28;20208;-68
2022/12/20 04:42:40;;;;;;;4.13;3.72;;;19.50;52.40;;;;;;4991973;28;20184;-68
2022/12/20 04:45:08;;;;;;;4.20;3.80;;;19.50;52.40;;;;;;4991797;28;20192;-68
2022/12/20 04:47:33;;;;;;;4.20;3.80;;;19.50;52.40;;;;;;4991977;28;20312;-68
2022/12/20 04:49:59;;;;;;;3.97;3.58;;;19.50;52.40;;;;;;4975963;28;20205;-68
2022/12/20 04:55:09;;;;;;;3.85;3.53;;;19.50;52.50;;;;;;4992060;28;20179;-68
2022/12/20 04:57:35;;;;;;;3.72;3.40;;;19.50;52.40;;;;;;4975832;28;20192;-68
2022/12/20 05:00:03;;;;;;;3.83;3.50;;;19.60;52.50;;;;;;4991415;28;20839;-68
2022/12/20 05:02:29;;;;;;;3.80;3.50;;;19.50;52.40;;;;;;4991794;28;20180;-68
2022/12/20 05:05:02;;;;;;;3.40;3.10;;;19.50;52.40;;;;;;4976359;28;20181;-68
2022/12/20 05:07:30;;;;;;;3.45;3.15;;;19.50;52.40;;;;;;4991456;28;20189;-68
2022/12/20 05:09:56;;;;;;;3.85;3.50;;;19.50;52.50;;;;;;4991467;28;20204;-68
2022/12/20 05:12:22;;;;;;;3.58;3.28;;;19.50;52.40;;;;;;4992624;28;20187;-67
2022/12/20 05:14:48;;;;;;;4.53;3.55;;;19.50;52.50;;;;;;4993158;28;20243;-68
2022/12/20 05:17:16;;;;;;;4.22;3.45;;;19.60;52.60;;;;;;4975621;28;20180;-69
2022/12/20 05:19:42;;;;;;;3.38;3.08;;;19.50;52.50;;;;;;4975357;28;20231;-68
2022/12/20 05:27:52;;;;;;;3.70;3.35;;;19.50;52.50;;;;;;4991358;28;20235;-68
2022/12/20 05:30:19;;;;;;;3.30;3.00;;;19.50;52.50;;;;;;4975321;28;20181;-68
2022/12/20 05:32:45;;;;;;;3.70;3.40;;;19.50;52.50;;;;;;4994266;28;20200;-68
2022/12/20 05:35:11;;;;;;;3.92;3.63;;;19.50;53.10;;;;;;4994973;28;20180;-68
2022/12/20 05:37:39;;;;;;;3.97;3.58;;;19.50;52.50;;;;;;4995214;28;20256;-68
2022/12/20 05:40:13;;;;;;;4.03;3.17;;;19.50;52.50;;;;;;4980044;28;20184;-68
2022/12/20 05:42:39;;;;;;;3.67;3.08;;;19.50;52.40;;;;;;4978805;28;20539;-69
2022/12/20 05:45:05;;;;;;;3.75;3.45;;;19.50;52.40;;;;;;4978971;28;20692;-69
2022/12/20 05:47:39;;;;;;;4.35;3.30;;;19.60;52.60;;;;;;4994727;28;20220;-69
2022/12/20 05:50:09;;;;;;;3.80;3.50;;;19.50;52.50;;;;;;4979160;28;20364;-69
2022/12/20 05:52:39;;;;;;;3.45;3.15;;;19.50;52.60;;;;;;4979064;28;20275;-68
2022/12/20 05:55:09;;;;;;;4.53;3.47;;;19.50;52.60;;;;;;4994630;28;20192;-69
2022/12/20 05:57:35;;;;;;;3.60;3.30;;;19.50;52.60;;;;;;4994805;28;20540;-68
2022/12/20 06:00:03;;;;;;;3.25;2.95;;;19.50;52.50;;;;;;4978158;28;20215;-68
2022/12/20 06:02:31;;;;;;;3.53;3.22;;;19.60;52.60;;;;;;4994560;28;20271;-68
2022/12/20 06:05:01;;;;;;;4.47;3.53;;;19.60;52.60;;;;;;4994820;28;20184;-68
2022/12/20 06:07:28;;;;;;;3.55;3.13;;;19.50;52.40;;;;;;4994435;28;20803;-69
2022/12/20 06:09:57;;;;;;;3.80;3.25;;;19.50;52.50;;;;;;4994616;28;20255;-69
2022/12/20 06:12:34;;;;;;;4.40;3.85;;;19.60;52.60;;;;;;4993973;28;20192;-69
2022/12/20 06:15:00;;;;;;;3.90;3.58;;;19.60;52.60;;;;;;4994002;28;20192;-69
2022/12/20 06:17:28;;;;;;;4.13;3.75;;;19.60;52.60;;;;;;4977861;28;20177;-69
2022/12/20 06:19:53;;;;;;;3.63;3.33;;;19.60;52.60;;;;;;4977660;28;20205;-69
2022/12/20 06:22:19;;;;;;;3.83;3.42;;;19.60;52.60;;;;;;4993677;28;20191;-69
2022/12/20 06:24:49;;;;;;;3.83;3.42;;;19.60;52.60;;;;;;4993479;28;20185;-69
2022/12/20 06:27:21;;;;;;;4.05;3.65;;;19.60;52.70;;;;;;4993320;28;20189;-69
2022/12/20 06:29:53;;;;;;;4.78;4.38;;;19.60;52.60;;;;;;4993523;28;20256;-69
2022/12/20 06:32:22;;;;;;;4.32;3.92;;;19.60;52.60;;;;;;4993343;28;20193;-69
2022/12/20 06:34:52;;;;;;;4.50;4.10;;;19.60;52.70;;;;;;4978086;28;20181;-69
2022/12/20 06:37:17;;;;;;;4.40;4.00;;;19.60;52.60;;;;;;4977462;28;20199;-69
2022/12/20 06:39:43;;;;;;;4.10;3.70;;;19.60;52.60;;;;;;4993454;28;20209;-69
2022/12/20 06:42:09;;;;;;;4.50;4.10;;;19.60;52.60;;;;;;4977131;28;20656;-69
2022/12/20 06:44:37;;;;;;;4.10;3.67;;;19.60;52.60;;;;;;4976571;28;20209;-70
2022/12/20 06:47:04;;;;;;;3.80;3.42;;;19.60;52.70;;;;;;4993285;28;20177;-70
2022/12/20 06:49:29;;;;;;;3.88;3.47;;;19.60;52.60;;;;;;4976900;28;20706;-71
2022/12/20 06:51:55;;;;;;;3.67;3.38;;;19.60;52.60;;;;;;4986616;28;20218;-70
2022/12/20 06:54:29;;;;;;;4.20;3.80;;;19.50;52.60;;;;;;4958462;28;20197;-70
2022/12/20 06:56:54;;;;;;;4.38;3.88;;;19.60;52.70;;;;;;4981473;28;20181;-70
2022/12/20 06:59:20;;;;;;;3.58;3.28;;;19.60;52.60;;;;;;4992717;28;20212;-71
2022/12/20 07:01:46;;;;;;;3.83;3.30;;;19.60;52.70;;;;;;4976886;28;20227;-71
2022/12/20 07:04:11;;;;;;;3.55;3.25;;;19.60;52.70;;;;;;4992747;28;20199;-71
2022/12/20 07:06:37;;;;;;;3.85;3.50;;;19.60;52.70;;;;;;5009282;28;20283;-73
2022/12/20 07:09:03;;;;;;;4.80;3.42;;;19.60;53.30;;;;;;5009192;28;20220;-70
2022/12/20 07:11:29;;;;;;;3.40;3.10;;;19.60;52.70;;;;;;4986329;28;20193;-70
2022/12/20 07:13:56;;;;;;;4.10;3.42;;;19.60;52.70;;;;;;4966901;28;20185;-70
2022/12/20 07:16:23;;;;;;;4.43;4.03;;;19.60;52.90;;;;;;4981420;28;20556;-70
2022/12/20 07:18:53;;;;;;;3.83;3.38;;;19.50;52.60;;;;;;4965886;28;20633;-69
2022/12/20 07:21:19;;;;;;;4.65;3.90;;;19.60;52.80;;;;;;4983889;28;20220;-70
2022/12/20 07:23:46;;;;;;;4.03;3.63;;;19.60;52.70;;;;;;4982487;28;20193;-69
2022/12/20 07:26:14;;;;;;;4.28;3.88;;;19.60;52.70;;;;;;4967996;28;20189;-70
2022/12/20 07:28:41;;;;;;;3.97;3.58;;;19.60;52.80;;;;;;4981575;28;20213;-70
2022/12/20 07:31:07;;;;;;;4.25;3.85;;;19.60;52.70;;;;;;4981884;28;20224;-70
2022/12/20 07:33:33;;;;;;;4.07;3.50;;;19.50;52.60;;;;;;4984569;28;20217;-70
2022/12/20 07:36:01;;;;;;;4.20;3.80;;;19.60;52.70;;;;;;4983338;28;20243;-70
2022/12/20 07:38:27;;;;;;;3.58;3.28;;;19.60;52.70;;;;;;4982581;28;20248;-70
2022/12/20 07:40:53;;;;;;;4.20;3.50;;;19.60;52.80;;;;;;4984829;28;20244;-70
2022/12/20 07:43:19;;;;;;;3.97;3.58;;;19.60;52.70;;;;;;4981061;28;20193;-70
2022/12/20 07:45:46;;;;;;;4.07;3.42;;;19.60;52.70;;;;;;4965819;28;20176;-70
2022/12/20 07:48:12;;;;;;;3.63;3.33;;;19.60;52.80;;;;;;4984134;28;20221;-71
2022/12/20 07:50:40;;;;;;;4.45;3.58;;;19.60;52.70;;;;;;4983354;28;20188;-70
2022/12/20 07:53:08;;;;;;;4.15;3.75;;;19.60;52.80;;;;;;4980258;28;20189;-70
2022/12/20 07:55:36;;;;;;;4.03;3.67;;;19.60;52.80;;;;;;4981282;28;20252;-70
2022/12/20 07:58:08;;;;;;;4.22;3.83;;;19.60;52.70;;;;;;4989285;28;20216;-70
2022/12/20 08:00:36;;;;;;;4.07;3.53;;;19.60;52.80;;;;;;4975773;28;20199;-69
2022/12/20 08:03:24;;;;;;;4.20;3.78;;;19.60;52.80;;;;;;4975631;28;20275;-69
2022/12/20 08:05:56;;;;;;;5.00;4.00;;;19.60;52.70;;;;;;4975658;28;20232;-69
2022/12/20 08:08:23;;;;;;;4.25;3.85;;;19.60;52.80;;;;;;4993103;28;20220;-69
2022/12/20 08:10:49;;;;;;;4.15;3.75;;;19.60;52.80;;;;;;4991973;28;20180;-69
2022/12/20 08:13:16;;;;;;;4.03;3.72;;;19.60;52.80;;;;;;4975449;28;20185;-69
2022/12/20 08:15:42;;;;;;;4.03;3.63;;;19.60;52.80;;;;;;4991816;28;20185;-70
2022/12/20 08:18:08;;;;;;;4.40;3.83;;;19.60;52.80;;;;;;4991910;28;20211;-69
2022/12/20 08:20:33;;;;;;;5.40;4.18;;;19.60;52.80;;;;;;4991536;28;20195;-70
2022/12/20 08:23:03;;;;;;;4.25;3.80;;;19.60;52.70;;;;;;4975220;28;20200;-69
2022/12/20 08:25:28;;;;;;;4.22;3.83;;;19.60;52.80;;;;;;4988063;28;20195;-69
2022/12/20 08:27:54;;;;;;;4.70;4.30;;;19.60;52.80;;;;;;4955893;28;20217;-70
2022/12/20 08:30:21;;;;;;;4.90;4.05;;;19.60;52.80;;;;;;4988353;28;20248;-70
2022/12/20 08:32:47;;;;;;;4.20;3.80;;;19.60;52.80;;;;;;4988024;28;20182;-69
2022/12/20 08:35:13;;;;;;;5.43;4.30;;;19.60;52.80;;;;;;4973157;28;20587;-70
2022/12/20 08:37:39;;;;;;;4.63;4.13;;;19.60;52.80;;;;;;4988447;28;20248;-69
2022/12/20 08:40:06;;;;;;;4.90;4.40;;;19.60;52.80;;;;;;4972094;28;20296;-70
2022/12/20 08:42:32;;;;;;;4.63;4.22;;;19.60;52.80;;;;;;4971645;28;20641;-69
2022/12/20 08:44:57;;;;;;;4.47;4.07;;;19.60;52.80;;;;;;4971998;28;20186;-69
2022/12/20 08:47:23;;;;;;;5.00;4.50;;;19.60;52.90;;;;;;4955800;28;20185;-69
2022/12/20 08:49:49;;;;;;;4.88;4.38;;;19.60;52.80;;;;;;4971987;28;20212;-69
2022/12/20 08:52:15;;;;;;;5.13;4.63;;;19.60;52.80;;;;;;4958717;28;20252;-69
2022/12/20 08:54:40;;;;;;;4.68;4.28;;;19.60;52.80;;;;;;4983187;28;20201;-69
2022/12/20 08:57:07;;;;;;;4.97;4.50;;;19.70;52.90;;;;;;4965535;28;20236;-70
2022/12/20 08:59:33;;;;;;;5.00;4.50;;;19.60;52.80;;;;;;4959678;28;20223;-70
2022/12/20 09:01:58;;;;;;;4.68;4.25;;;19.60;52.80;;;;;;4971962;28;20181;-70
2022/12/20 09:04:24;;;;;;;4.47;4.05;;;19.60;52.80;;;;;;4990881;28;20188;-70
2022/12/20 09:06:50;;;;;;;4.82;4.32;;;19.60;52.80;;;;;;4975666;28;20211;-69
2022/12/20 09:09:15;;;;;;;5.45;4.50;;;19.70;52.90;;;;;;4994930;28;20216;-69
2022/12/20 09:11:41;;;;;;;4.75;4.32;;;19.60;52.80;;;;;;4978962;28;20574;-69
2022/12/20 09:14:08;;;;;;;5.00;4.40;;;19.60;52.80;;;;;;4994828;28;20190;-70
2022/12/20 09:16:34;;;;;;;4.40;4.00;;;19.70;53.00;;;;;;4994978;28;20195;-69
2022/12/20 09:19:02;;;;;;;4.25;3.95;;;19.70;52.90;;;;;;4994852;28;20212;-70
2022/12/20 09:21:28;;;;;;;4.45;3.80;;;19.70;53.00;;;;;;4978771;28;20184;-70
2022/12/20 09:23:56;;;;;;;4.15;3.58;;;19.70;53.00;;;;;;4978306;28;20203;-70
2022/12/20 09:26:23;;;;;;;4.20;3.80;;;19.70;53.00;;;;;;4994962;28;20188;-70
2022/12/20 09:28:49;;;;;;;4.40;4.00;;;19.70;52.90;;;;;;4978426;28;20248;-70
2022/12/20 09:31:19;;;;;;;3.97;3.67;;;19.70;53.00;;;;;;4995949;28;20189;-70
2022/12/20 09:33:45;;;;;;;4.55;4.15;;;19.70;53.00;;;;;;4994635;28;20645;-70
2022/12/20 09:36:20;;;;;;;4.70;4.25;;;19.70;53.00;;;;;;4978411;28;20323;-70
2022/12/20 09:38:47;;;;;;;4.30;3.90;;;19.70;53.00;;;;;;4995759;28;20236;-70
2022/12/20 09:41:38;;;;;;;5.57;4.07;;;19.70;52.90;;;;;;4995071;28;20224;-70
2022/12/20 09:44:25;;;;;;;4.28;3.88;;;19.70;53.00;;;;;;4978493;28;20184;-70
2022/12/20 09:47:12;;;;;;;4.22;3.83;;;19.70;53.00;;;;;;4995774;28;20268;-70
2022/12/20 09:49:47;;;;;;;4.15;3.70;;;19.70;53.00;;;;;;4994253;28;20227;-70
2022/12/20 09:53:01;;;;;;;4.13;3.63;;;19.70;52.90;;;;;;4994560;28;20192;-70
2022/12/20 09:56:04;;;;;;;4.47;3.90;;;19.70;53.00;;;;;;4978132;28;20196;-70
2022/12/20 09:58:54;;;;;;;4.57;3.63;;;19.70;53.00;;;;;;4955718;28;20221;-70
2022/12/20 10:01:23;;;;;;;3.42;3.13;;;19.70;52.90;;;;;;4975938;28;20279;-70
2022/12/20 10:03:49;;;;;;;3.97;3.30;;;19.70;52.90;;;;;;4990875;28;20190;-70
2022/12/20 10:06:58;;;;;;;3.78;3.42;;;19.70;52.90;;;;;;4982121;28;20288;-70
2022/12/20 10:09:35;;;;;;;3.60;3.30;;;19.70;53.00;;;;;;4972722;28;20299;-70
2022/12/20 10:12:45;;;;;;;4.70;3.60;;;19.80;53.00;;;;;;4994237;28;20200;-70
2022/12/20 10:15:29;;;;;;;5.20;3.30;;;19.80;53.00;;;;;;4995229;28;20199;-70
2022/12/20 10:18:29;;;;;;;3.25;2.95;;;19.80;53.00;;;;;;4993255;28;20275;-70
2022/12/20 10:21:04;;;;;;;3.60;3.10;;;19.80;53.00;;;;;;4993971;28;20668;-70
2022/12/20 10:23:40;;;;;;;3.63;3.33;;;19.80;53.00;;;;;;4993708;28;20276;-70
2022/12/20 10:26:12;;;;;;;4.30;3.17;;;19.80;53.00;;;;;;4993849;28;20185;-70
2022/12/20 10:28:39;;;;;;;3.45;3.13;;;19.80;53.00;;;;;;4993555;28;20316;-70
2022/12/20 10:31:16;;;;;;;4.03;3.53;;;19.80;53.00;;;;;;4993970;28;20185;-70
2022/12/20 10:33:44;;;;;;;3.45;3.15;;;19.80;53.00;;;;;;4993343;28;20280;-70
2022/12/20 10:36:25;;;;;;;3.45;3.13;;;19.80;53.00;;;;;;4994780;28;20204;-70
2022/12/20 10:38:57;;;;;;;3.70;3.17;;;19.80;53.00;;;;;;4993707;28;20213;-70
2022/12/20 10:41:31;;;;;;;3.33;2.78;;;19.80;53.00;;;;;;4978805;28;20196;-70
2022/12/20 10:44:24;;;;;;;2.97;2.78;;;19.80;53.00;;;;;;4993454;28;20188;-70
2022/12/20 10:46:54;;;;;;;3.95;3.55;;;19.80;53.00;;;;;;4993401;28;20188;-70
2022/12/20 10:49:36;;;;;;;2.97;2.75;;;19.80;53.00;;;;;;4993212;28;20223;-68
2022/12/20 10:52:08;;;;;;;3.38;3.08;;;19.80;53.00;;;;;;4993554;28;20180;-70
2022/12/20 10:54:43;;;;;;;2.97;2.60;;;19.80;53.00;;;;;;4976899;28;20184;-70
2022/12/20 10:57:19;;;;;;;4.00;2.83;;;19.80;53.00;;;;;;4983551;28;20189;-70
2022/12/20 11:00:07;;;;;;;2.78;2.58;;;19.80;53.00;;;;;;4973674;28;20233;-70
2022/12/20 11:02:38;;;;;;;3.20;2.90;;;19.80;53.00;;;;;;4986113;28;20196;-70
2022/12/20 11:05:10;;;;;;;3.20;2.90;;;19.80;53.10;;;;;;4993088;28;20287;-70
2022/12/20 11:08:05;;;;;;;3.38;3.08;;;19.80;53.00;;;;;;4990510;28;20200;-70
2022/12/20 11:10:31;;;;;;;6.47;5.38;;;19.80;53.00;;;;;;4993007;28;20215;-71
2022/12/20 11:13:02;;;;;;;5.57;4.70;;;19.80;53.00;;;;;;4992936;28;20248;-71
2022/12/20 11:15:32;;;;;;;7.90;6.15;;;19.80;53.10;;;;;;4993121;28;20188;-71
2022/12/20 11:18:07;;;;;;;6.38;4.55;;;19.80;53.00;;;;;;4992726;28;20676;-71
2022/12/20 11:21:10;;;;;;;5.57;4.20;;;19.80;53.00;;;;;;4992781;28;20298;-71
2022/12/20 11:23:48;;;;;;;7.65;4.72;;;19.80;53.00;;;;;;4992678;28;20216;-71
2022/12/20 11:26:32;;;;;;;6.68;4.60;;;19.80;53.00;;;;;;4976478;28;20195;-71
2022/12/20 11:29:18;;;;;;;6.80;5.15;;;19.80;53.00;;;;;;4991920;28;20259;-71
2022/12/20 11:32:29;;;;;;;5.07;4.35;;;19.80;53.00;;;;;;4992486;28;20180;-71
2022/12/20 11:35:25;;;;;;;5.00;3.78;;;19.80;53.00;;;;;;4993429;28;20184;-71
2022/12/20 11:38:22;;;;;;;5.55;4.25;;;19.80;53.00;;;;;;4966873;28;20201;-71
2022/12/20 11:41:17;;;;;;;7.65;5.85;;;19.80;53.00;;;;;;4992540;28;20189;-71
2022/12/20 11:44:04;;;;;;;6.63;5.03;;;19.80;53.00;;;;;;4992421;28;20220;-71
2022/12/20 11:47:13;;;;;;;6.50;4.50;;;19.80;53.00;;;;;;4976171;28;20184;-71
2022/12/20 11:50:08;;;;;;;6.15;4.68;;;19.80;53.00;;;;;;4974029;28;20247;-71
2022/12/20 11:53:03;;;;;;;7.32;5.13;;;19.80;53.00;;;;;;4976100;28;20192;-71
2022/12/20 11:55:40;;;;;;;5.25;4.15;;;19.80;53.00;;;;;;4966593;28;20208;-71
2022/12/20 11:58:25;;;;;;;5.50;4.57;;;19.80;53.00;;;;;;4992529;28;20180;-71
2022/12/20 12:01:03;;;;;;;7.18;4.50;;;19.80;53.00;;;;;;4992429;28;20235;-70
2022/12/20 12:03:35;;;;;;;6.22;4.53;;;19.80;53.20;;;;;;4976398;28;20181;-70
2022/12/20 12:06:15;;;;;;;5.75;4.60;;;19.80;53.10;;;;;;4992339;28;20246;-71
2022/12/20 12:08:52;;;;;;;5.15;4.63;;;19.80;53.00;;;;;;4992287;28;20247;-70
2022/12/20 12:11:31;;;;;;;5.88;4.28;;;19.80;53.00;;;;;;4992349;28;20189;-70
2022/12/20 12:14:02;;;;;;;6.07;4.45;;;19.80;53.00;;;;;;4992395;28;20172;-70
2022/12/20 12:16:44;;;;;;;5.95;4.13;;;19.80;53.00;;;;;;4992475;28;20271;-71
2022/12/20 12:19:12;;;;;;;5.03;4.25;;;19.80;53.00;;;;;;4993394;28;20291;-70
2022/12/20 12:21:50;;;;;;;5.53;4.07;;;19.80;53.00;;;;;;4992435;28;20199;-70
2022/12/20 12:24:29;;;;;;;4.53;3.97;;;19.80;53.00;;;;;;4991833;28;20195;-70
2022/12/20 12:26:58;;;;;;;5.85;4.32;;;19.80;53.10;;;;;;4991969;28;20235;-70
2022/12/20 12:29:24;;;;;;;5.75;4.78;;;19.80;53.00;;;;;;4993039;28;20277;-70
2022/12/20 12:32:12;;;;;;;4.57;3.88;;;19.80;53.10;;;;;;4992250;28;20667;-70
2022/12/20 12:35:12;;;;;;;4.72;4.25;;;19.80;53.00;;;;;;4991822;28;20172;-71
2022/12/20 12:38:04;;;;;;;4.95;4.13;;;19.80;53.00;;;;;;4991954;28;20217;-71
2022/12/20 12:41:10;;;;;;;5.15;4.13;;;19.80;53.00;;;;;;4991394;28;20189;-71
2022/12/20 12:44:17;;;;;;;5.45;3.88;;;19.80;53.10;;;;;;4991793;28;20211;-71
2022/12/20 12:46:46;;;;;;;4.95;4.43;;;19.80;53.10;;;;;;4960425;28;20212;-71
2022/12/20 12:49:21;;;;;;;5.05;4.55;;;19.80;53.00;;;;;;4975347;28;20323;-71
2022/12/20 12:51:54;;;;;;;5.80;4.38;;;19.80;53.00;;;;;;4991886;28;20172;-71
2022/12/20 12:54:33;;;;;;;5.82;4.05;;;19.90;53.10;;;;;;4991162;28;20188;-71
2022/12/20 12:57:20;;;;;;;6.18;4.03;;;19.80;53.60;;;;;;4991460;28;20188;-69
2022/12/20 12:59:49;;;;;;;5.07;4.57;;;19.90;53.20;;;;;;4991506;28;20204;-71
2022/12/20 13:02:14;;;;;;;5.45;4.65;;;19.80;53.10;;;;;;4991566;28;20567;-70
2022/12/20 13:05:05;;;;;;;5.35;4.30;;;19.80;53.00;;;;;;4968204;28;20192;-70
2022/12/20 13:07:38;;;;;;;5.10;4.32;;;19.80;53.00;;;;;;4992126;28;20265;-70
2022/12/20 13:10:19;;;;;;;4.45;3.75;;;19.80;53.00;;;;;;4988430;28;20213;-70
2022/12/20 13:12:50;;;;;;;4.63;4.22;;;19.80;53.00;;;;;;4989052;28;20189;-71
2022/12/20 13:15:19;;;;;;;4.55;4.15;;;19.80;53.00;;;;;;4975313;28;20212;-71
2022/12/20 13:18:19;;;;;;;6.03;4.30;;;19.80;53.00;;;;;;4975480;28;20187;-71
2022/12/20 13:21:30;;;;;;;6.40;4.38;;;19.80;53.00;;;;;;4993073;28;20169;-71
2022/12/20 13:24:36;;;;;;;4.68;4.13;;;19.90;53.60;;;;;;5007773;28;20235;-71
2022/12/20 13:27:20;;;;;;;4.57;3.90;;;19.90;53.60;;;;;;4975664;28;20283;-70